Meteorología y climatología de Navarra
Datos de la estación - Meteo Navarra

Estación de Yesa GN

Altitud 487 m.


Datos desde el 26/03/2020 hasta el 27/03/2020 en horario solar
Los datos son PROVISIONALES

Anterior Página 1 de 1 Siguiente Descargar: Formato para Excel 2000 o superior   Formato csv   Formato para OpenOffice Calc
Fecha Temperatura Humedad relativa Radiación global Insolación Precipitación Vel. viento 10 m Vel. viento 10 m Dir. viento 10 m
ºC % W/m² s l/m² m/s km/h º
26/03/2020 0:00 2.3 85 0.0 0 0.0 0.5 1.6 27
26/03/2020 0:10 2.0 87 0.0 0 0.0 0.4 1.5 17
26/03/2020 0:20 1.8 88 0.0 0 0.0 0.9 3.1 36
26/03/2020 0:30 1.4 89 0.0 0 0.0 1.0 3.4 336
26/03/2020 0:40 1.4 88 0.0 0 0.0 0.3 1.2 76
26/03/2020 0:50 1.6 89 0.0 0 0.0 1.2 4.3 8
26/03/2020 1:00 2.3 84 0.0 0 0.0 0.6 2.3 276
26/03/2020 1:10 2.4 82 0.0 0 0.0 1.1 3.8 312
26/03/2020 1:20 2.5 82 0.0 0 0.0 1.5 5.3 320
26/03/2020 1:30 2.6 82 0.0 0 0.0 0.9 3.2 332
26/03/2020 1:40 2.2 85 0.0 0 0.0 1.8 6.4 287
26/03/2020 1:50 2.9 84 0.0 0 0.0 1.4 5.1 313
26/03/2020 2:00 3.1 84 0.0 0 0.0 0.8 3.0 319
26/03/2020 2:10 3.3 83 0.0 0 0.0 1.7 6.1 299
26/03/2020 2:20 3.4 83 0.0 0 0.0 1.4 4.9 312
26/03/2020 2:30 3.0 85 0.0 0 0.0 1.5 5.4 300
26/03/2020 2:40 3.2 85 0.0 0 0.0 1.5 5.4 317
26/03/2020 2:50 3.2 87 0.0 0 0.0 1.9 6.7 327
26/03/2020 3:00 3.4 87 0.0 0 0.0 1.4 5.0 271
26/03/2020 3:10 3.7 87 0.0 0 0.0 2.1 7.5 291
26/03/2020 3:20 3.7 88 0.0 0 0.0 1.5 5.5 271
26/03/2020 3:30 4.1 87 0.0 0 0.0 1.9 6.9 262
26/03/2020 3:40 4.2 87 0.0 0 0.0 1.8 6.3 262
26/03/2020 3:50 4.7 86 0.0 0 0.0 1.3 4.7 250
26/03/2020 4:00 4.7 87 0.0 0 0.0 2.4 8.8 254
26/03/2020 4:10 4.9 86 0.0 0 0.0 2.6 9.5 267
26/03/2020 4:20 5.5 83 0.0 0 0.0 3.5 12.5 280
26/03/2020 4:30 6.6 74 0.0 0 0.0 3.3 12.0 264
26/03/2020 4:40 6.9 69 0.0 0 0.0 2.8 10.2 250
26/03/2020 4:50 6.9 66 0.0 0 0.0 2.9 10.5 254
26/03/2020 5:00 7.0 65 0.0 0 0.0 3.3 11.9 256
26/03/2020 5:10 7.3 61 0.0 0 0.0 2.5 9.0 226
26/03/2020 5:20 7.1 60 0.0 0 0.0 2.9 10.3 247
26/03/2020 5:30 7.1 60 0.0 0 0.0 3.2 11.5 258
26/03/2020 5:40 7.1 60 0.0 0 0.0 2.5 8.9 289
26/03/2020 5:50 7.0 59 0.0 0 0.0 2.2 7.8 264
26/03/2020 6:00 7.1 59 0.0 0 0.0 3.4 12.3 19
26/03/2020 6:10 7.2 58 0.0 0 0.0 2.3 8.2 280
26/03/2020 6:20 7.1 59 5.3 0 0.0 2.9 10.5 260
26/03/2020 6:30 7.4 58 13.8 0 0.0 3.0 10.8 261
26/03/2020 6:40 7.3 59 25.9 0 0.0 3.1 11.2 248
26/03/2020 6:50 7.4 59 26.7 0 0.0 4.1 14.9 253
26/03/2020 7:00 7.3 57 50.1 0 0.0 4.7 16.8 261
26/03/2020 7:10 7.3 55 64.3 48 0.0 3.3 11.8 266
26/03/2020 7:20 7.3 53 138.8 304 0.0 3.6 12.9 270
26/03/2020 7:30 7.3 52 101.7 114 0.0 3.5 12.4 270
26/03/2020 7:40 7.2 51 133.1 152 0.0 3.4 12.2 273
26/03/2020 7:50 7.3 51 138.1 124 0.0 3.6 12.8 280
26/03/2020 8:00 7.5 50 347.9 532 0.0 3.1 11.2 285
26/03/2020 8:10 7.7 50 303.7 390 0.0 2.4 8.6 245
26/03/2020 8:20 7.6 50 230.3 212 0.0 3.0 10.6 247
26/03/2020 8:30 7.8 51 235.4 218 0.0 2.1 7.5 168
26/03/2020 8:40 7.7 53 170.4 66 0.0 2.2 7.7 165
26/03/2020 8:50 7.9 53 369.0 330 0.0 1.5 5.5 166
26/03/2020 9:00 8.2 50 390.8 324 0.0 2.9 10.3 310
26/03/2020 9:10 8.5 48 528.3 476 0.0 2.8 10.0 123
26/03/2020 9:20 8.9 46 590.9 534 0.0 3.0 10.7 112
26/03/2020 9:30 8.9 44 642.3 586 0.0 2.6 9.4 80
26/03/2020 9:40 9.0 42 673.2 582 0.0 4.4 15.9 75
26/03/2020 9:50 8.7 40 697.1 600 0.0 3.6 13.0 65
26/03/2020 10:00 9.0 40 718.7 600 0.0 2.8 9.9 127
26/03/2020 10:10 9.0 39 733.8 600 0.0 3.4 12.3 256
26/03/2020 10:20 9.1 40 753.9 600 0.0 2.8 10.0 183
26/03/2020 10:30 9.7 38 767.9 600 0.0 2.3 8.3 297
26/03/2020 10:40 9.4 34 784.2 600 0.0 3.8 13.8 269
26/03/2020 10:50 9.3 32 798.6 600 0.0 3.5 12.5 271
26/03/2020 11:00 9.3 31 818.0 600 0.0 4.9 17.7 286
26/03/2020 11:10 9.4 32 833.0 600 0.0 4.9 17.5 319
26/03/2020 11:20 9.7 33 841.0 600 0.0 5.0 18.0 325
26/03/2020 11:30 9.9 33 844.0 600 0.0 3.6 13.1 310
26/03/2020 11:40 10.1 38 844.0 600 0.0 3.9 14.0 288
26/03/2020 11:50 10.1 36 855.0 600 0.0 4.5 16.0 307
26/03/2020 12:00 10.3 35 851.0 600 0.0 3.0 10.8 311
26/03/2020 12:10 10.4 36 855.0 600 0.0 3.9 14.1 289
26/03/2020 12:20 10.5 32 859.0 600 0.0 4.3 15.6 300
26/03/2020 12:30 10.7 31 852.0 600 0.0 4.1 14.7 312
26/03/2020 12:40 10.9 30 853.0 600 0.0 3.2 11.7 246
26/03/2020 12:50 11.7 31 850.0 600 0.0 2.8 10.2 222
26/03/2020 13:00 11.8 29 838.0 600 0.0 3.4 12.2 91
26/03/2020 13:10 11.5 26 834.0 600 0.0 3.9 14.2 68
26/03/2020 13:20 11.7 29 817.0 600 0.0 2.3 8.2 114
26/03/2020 13:30 11.7 28 804.0 600 0.0 2.6 9.3 27
26/03/2020 13:40 11.9 28 789.2 600 0.0 1.5 5.4 181
26/03/2020 13:50 11.7 29 769.1 600 0.0 1.8 6.6 238
26/03/2020 14:00 12.1 30 753.2 600 0.0 2.8 10.2 113
26/03/2020 14:10 12.2 29 735.9 600 0.0 3.1 11.0 100
26/03/2020 14:20 12.1 30 714.9 600 0.0 3.0 10.8 271
26/03/2020 14:30 11.5 28 696.9 600 0.0 4.0 14.3 278
26/03/2020 14:40 11.4 30 674.8 600 0.0 4.1 14.9 300
26/03/2020 14:50 11.5 30 648.5 600 0.0 3.0 10.8 322
26/03/2020 15:00 11.3 31 621.6 600 0.0 4.6 16.7 303
26/03/2020 15:10 10.9 34 600.1 600 0.0 6.3 22.6 308
26/03/2020 15:20 10.5 34 570.0 600 0.0 6.0 21.6 304
26/03/2020 15:30 10.9 34 543.2 600 0.0 4.8 17.2 307
26/03/2020 15:40 10.8 34 509.0 600 0.0 5.3 19.1 324
26/03/2020 15:50 11.3 33 476.3 600 0.0 3.2 11.4 355
26/03/2020 16:00 11.2 32 443.9 600 0.0 3.8 13.5 8
26/03/2020 16:10 10.6 32 412.7 600 0.0 4.0 14.3 346
26/03/2020 16:20 10.6 31 379.9 600 0.0 5.9 21.4 312
26/03/2020 16:30 10.3 32 352.9 600 0.0 3.5 12.6 321
26/03/2020 16:40 10.2 33 307.2 600 0.0 4.2 15.0 325
26/03/2020 16:50 10.1 34 254.4 600 0.0 2.6 9.2 1
26/03/2020 17:00 9.7 35 224.0 600 0.0 4.7 16.8 15
26/03/2020 17:10 9.5 36 191.6 600 0.0 3.1 11.1 8
26/03/2020 17:20 9.2 37 155.3 600 0.0 3.3 11.9 307
26/03/2020 17:30 8.9 39 122.6 600 0.0 4.9 17.6 340
26/03/2020 17:40 8.4 40 94.6 600 0.0 5.2 18.8 343
26/03/2020 17:50 8.0 40 65.6 540 0.0 5.1 18.5 349
26/03/2020 18:00 7.9 41 22.1 0 0.0 5.3 18.9 351
26/03/2020 18:10 7.4 42 7.6 0 0.0 5.6 20.1 347
26/03/2020 18:20 7.4 43 0.0 0 0.0 4.3 15.5 349
26/03/2020 18:30 7.0 45 0.0 0 0.0 4.6 16.6 346
26/03/2020 18:40 6.9 45 0.0 0 0.0 5.6 20.2 351
26/03/2020 18:50 6.8 46 0.0 0 0.0 5.5 19.7 347
26/03/2020 19:00 6.4 48 0.0 0 0.0 4.1 14.8 350
26/03/2020 19:10 6.2 49 0.0 0 0.0 4.4 15.9 344
26/03/2020 19:20 6.1 49 0.0 0 0.0 4.2 15.0 349
26/03/2020 19:30 6.2 50 0.0 0 0.0 5.2 18.7 359
26/03/2020 19:40 6.1 49 0.0 0 0.0 5.2 18.9 349
26/03/2020 19:50 5.9 50 0.0 0 0.0 4.9 17.7 347
26/03/2020 20:00 5.9 51 0.0 0 0.0 3.8 13.8 348
26/03/2020 20:10 5.8 51 0.0 0 0.0 3.8 13.7 349
26/03/2020 20:20 5.8 52 0.0 0 0.0 3.7 13.2 349
26/03/2020 20:30 5.7 52 0.0 0 0.0 3.2 11.3 340
26/03/2020 20:40 5.6 52 0.0 0 0.0 3.6 12.8 0
26/03/2020 20:50 5.7 53 0.0 0 0.0 3.2 11.6 11
26/03/2020 21:00 5.6 53 0.0 0 0.0 2.1 7.6 13
26/03/2020 21:10 5.6 54 0.0 0 0.0 1.5 5.4 11
26/03/2020 21:20 5.6 55 0.0 0 0.0 0.7 2.7 151
26/03/2020 21:30 5.7 54 0.0 0 0.0 0.9 3.2 345
26/03/2020 21:40 5.4 56 0.0 0 0.0 0.3 1.1 200
26/03/2020 21:50 5.5 56 0.0 0 0.0 1.0 3.6 263
26/03/2020 22:00 5.2 58 0.0 0 0.0 1.2 4.2 298
26/03/2020 22:10 5.1 60 0.0 0 0.0 1.7 5.9 294
26/03/2020 22:20 4.9 61 0.0 0 0.0 0.5 1.8 36
26/03/2020 22:30 4.7 67 0.0 0 0.0 1.7 6.0 19
26/03/2020 22:40 4.6 76 0.0 0 0.0 1.8 6.5 20
26/03/2020 22:50 4.4 75 0.0 0 0.0 1.0 3.5 27
26/03/2020 23:00 4.6 76 0.0 0 0.0 0.2 0.8 153
26/03/2020 23:10 4.5 78 0.0 0 0.0 0.3 0.9 147
26/03/2020 23:20 4.5 77 0.0 0 0.0 0.2 0.6 254
26/03/2020 23:30 4.4 79 0.0 0 0.0 0.2 0.5 29
26/03/2020 23:40 4.5 81 0.0 0 0.0 0.3 1.0 81
26/03/2020 23:50 4.6 77 0.0 0 0.0 0.1 0.4 144
Anterior Página 1 de 1 Siguiente

NOTA: Tipo de datos según el color:
   - Valores diarios o 10 minutos correctos
   - Valores diarios calculados a partir de un número de datos 10 minutos menor que 144 y mayor que 120, o de un número de datos semihorarios menor que 48 y mayor que 40 (caso de las estaciones de INTIA y del Ministerio)
   - Valores diez minutos estimados


Contacto        Enlaces        Aviso legal